ROMMA est une association bénévole à but non lucratif. Votre soutien est indispensable : ADHERER à ROMMA ou FAIRE un DON

Granges-lès-Beaumont - (26, Drôme)

Drôme des Collines (155 m)   Longitude: 04°58'E   Latitude: 45°03'N Station partenaire n°123
 

Détail journalier du     <<     >>

Température Precipitation Humidité Pression Vent Dir Rafale Dir. rafale Ensol.
Heure (°C) (mm) (%) (hPa) (km/h) (km/h) (min)
01:00 9.708810091---10NNO0
02:00 9.408810095NO13ONO0
03:00 9.008910096NNO13NNO0
04:00 8.409010092ONO8NNO0
05:00 8.70.28810097NO15ONO0
06:00 8.908710097NNO13N0
07:00 8.408810096NNE16NNE0
08:00 8.208810095NO11ONO0
09:00 7.709010102O8ONO0
10:00 9.4085101000---20
11:00 11.108310106ONO15ONO40
12:00 12.107910106NO11ONO30
13:00 12.607710105NNO10N30
14:00 13.207910095NNE13E50
15:00 12.908110103E13ENE0
16:00 13.1079101000---10
17:00 11.908310105ENE11ENE30
18:00 10.109010114NNO10NNO0
19:00 8.909210115NNO10NNO0
20:00 7.9094101106NNO0
21:00 6.909510111NNO8NNO0
22:00 6.6095101206NNO0
23:00 6.609510122N10N0
minuit 6.3095101208E0

Graphique du 25-11-2019

 

Serveur OMMA